Terminal Aerodrome Forecast
Issued by NWS Mt. Holly, NJ

Home | Current Version | Previous Version | Text Only | Print | Product List | Glossary On
Versions: 1 2 3 4 5 6 7 8 9 10 11 12 13 14 15 16 17 18 19 20
000
FTUS41 KPHI 152300
TAFILG
TAF
KILG 152329Z 1600/1624 18003KT P6SM BKN200
     FM160800 18003KT P6SM BKN120
      TEMPO 1608/1611 -SHRA
     FM161100 27005KT P6SM BKN050
      TEMPO 1611/1612 -SHRA
     FM161400 33008KT P6SM SCT050=

USA.gov is the U.S. government's official web portal to all federal, state and local government web resources and services.